Time;durP1;ratioP1;P1;durP2;ratioP2;P2;SDS_P1;SDS_P2;PMS_P1;PMS_P2;Temp;Humidity;BMP_temperature;BMP_pressure;BME280_temperature;BME280_humidity;BME280_pressure;Samples;Min_cycle;Max_cycle;Signal;HPM_P1;HPM_P2
2022/04/27 00:00:31;;;;;;;;;;;;;;;;;;5070747;28;19956;-53
2022/04/27 00:03:02;;;;;;;;;;;;;;;;;;5072233;28;20442;-52
2022/04/27 00:05:29;;;;;;;;;;;;;;;;;;5071913;28;19925;-56
2022/04/27 00:08:05;;;;;;;;;;;;;;;;;;5072209;28;20312;-50
2022/04/27 00:10:32;;;;;;;;;;;;;;;;;;5070210;28;19908;-47
2022/04/27 00:12:58;;;;;;;;;;;;;;;;;;5056046;28;19915;-50
2022/04/27 00:15:28;;;;;;;;;;;;;;;;;;5051366;28;20264;-53
2022/04/27 00:17:56;;;;;;;;;;;;;;;;;;5053177;28;20356;-51
2022/04/27 00:20:24;;;;;;;;;;;;;;;;;;5051960;28;20382;-55
2022/04/27 00:22:50;;;;;;;;;;;;;;;;;;5053388;28;19909;-52
2022/04/27 00:25:23;;;;;;;;;;;;;;;;;;5053112;28;19917;-49
2022/04/27 00:27:52;;;;;;;;;;;;;;;;;;5052945;28;19998;-53
2022/04/27 00:30:19;;;;;;;;;;;;;;;;;;5052853;28;19919;-54
2022/04/27 00:32:46;;;;;;;;;;;;;;;;;;5052684;28;19950;-54
2022/04/27 00:35:14;;;;;;;;;;;;;;;;;;5051775;28;19909;-52
2022/04/27 00:37:40;;;;;;;;;;;;;;;;;;5052084;28;19913;-53
2022/04/27 00:40:10;;;;;;;;;;;;;;;;;;5051532;28;19909;-55
2022/04/27 00:42:37;;;;;;;;;;;;;;;;;;5050900;28;19915;-49
2022/04/27 00:45:06;;;;;;;;;;;;;;;;;;5051104;28;19962;-47
2022/04/27 00:47:34;;;;;;;;;;;;;;;;;;5052219;28;20410;-53
2022/04/27 00:50:03;;;;;;;;;;;;;;;;;;5050366;28;19919;-57
2022/04/27 00:52:33;;;;;;;;;;;;;;;;;;5052292;28;19915;-51
2022/04/27 00:54:59;;;;;;;;;;;;;;;;;;5051728;28;19909;-50
2022/04/27 00:57:26;;;;;;;;;;;;;;;;;;5051232;28;19999;-51
2022/04/27 00:59:52;;;;;;;;;;;;;;;;;;5051941;28;19908;-49
2022/04/27 01:02:19;;;;;;;;;;;;;;;;;;5051274;28;19908;-51
2022/04/27 01:04:46;;;;;;;;;;;;;;;;;;5056789;28;20335;-53
2022/04/27 01:07:12;;;;;;;;;;;;;;;;;;5049455;28;19924;-53
2022/04/27 01:09:39;;;;;;;;;;;;;;;;;;5051853;28;20031;-53
2022/04/27 01:12:06;;;;;;;;;;;;;;;;;;5051945;28;20375;-57
2022/04/27 01:14:33;;;;;;;;;;;;;;;;;;5054698;28;19916;-52
2022/04/27 01:17:00;;;;;;;;;;;;;;;;;;5054064;28;19955;-50
2022/04/27 01:19:27;;;;;;;;;;;;;;;;;;5063588;28;20359;-49
2022/04/27 01:21:54;;;;;;;;;;;;;;;;;;5074820;28;19936;-51
2022/04/27 01:24:21;;;;;;;;;;;;;;;;;;5068989;28;20007;-54
2022/04/27 01:26:48;;;;;;;;;;;;;;;;;;5055232;28;19917;-52
2022/04/27 01:29:14;;;;;;;;;;;;;;;;;;5055084;28;19909;-50
2022/04/27 01:31:41;;;;;;;;;;;;;;;;;;5055167;28;19909;-56
2022/04/27 01:34:15;;;;;;;;;;;;;;;;;;5055342;28;20224;-52
2022/04/27 01:36:42;;;;;;;;;;;;;;;;;;5060636;28;20348;-48
2022/04/27 01:39:08;;;;;;;;;;;;;;;;;;5073617;28;20297;-47
2022/04/27 01:41:36;;;;;;;;;;;;;;;;;;5075430;28;20376;-47
2022/04/27 01:44:02;;;;;;;;;;;;;;;;;;5075099;28;20282;-52
2022/04/27 01:46:29;;;;;;;;;;;;;;;;;;5074821;28;19916;-46
2022/04/27 01:48:56;;;;;;;;;;;;;;;;;;5075075;28;19909;-47
2022/04/27 01:54:16;;;;;;;;;;;;;;;;;;5074709;28;19932;-48
2022/04/27 01:56:43;;;;;;;;;;;;;;;;;;5074324;28;20305;-48
2022/04/27 01:59:09;;;;;;;;;;;;;;;;;;5073521;28;19908;-49
2022/04/27 02:01:36;;;;;;;;;;;;;;;;;;5073708;28;20113;-52
2022/04/27 02:04:02;;;;;;;;;;;;;;;;;;5074652;28;20323;-50
2022/04/27 02:06:29;;;;;;;;;;;;;;;;;;5074465;28;20003;-44
2022/04/27 02:08:57;;;;;;;;;;;;;;;;;;5074524;28;19908;-48
2022/04/27 02:11:26;;;;;;;;;;;;;;;;;;5073758;28;20406;-53
2022/04/27 02:13:56;;;;;;;;;;;;;;;;;;5074219;28;20312;-43
2022/04/27 02:16:22;;;;;;;;;;;;;;;;;;5074177;28;20386;-48
2022/04/27 02:18:49;;;;;;;;;;;;;;;;;;5072478;28;19912;-45
2022/04/27 02:21:15;;;;;;;;;;;;;;;;;;5073428;28;20008;-51
2022/04/27 02:23:42;;;;;;;;;;;;;;;;;;5074368;28;19915;-50
2022/04/27 02:26:09;;;;;;;;;;;;;;;;;;5072786;28;20011;-50
2022/04/27 02:28:35;;;;;;;;;;;;;;;;;;5073506;28;19930;-51
2022/04/27 02:31:02;;;;;;;;;;;;;;;;;;5072361;28;19909;-46
2022/04/27 02:33:29;;;;;;;;;;;;;;;;;;5073408;28;19908;-42
2022/04/27 02:35:56;;;;;;;;;;;;;;;;;;5073933;28;19908;-47
2022/04/27 02:38:22;;;;;;;;;;;;;;;;;;5074430;28;19908;-51
2022/04/27 02:40:49;;;;;;;;;;;;;;;;;;5073776;28;19913;-55
2022/04/27 02:43:15;;;;;;;;;;;;;;;;;;5073530;28;20259;-53
2022/04/27 02:45:42;;;;;;;;;;;;;;;;;;5073590;28;19928;-56
2022/04/27 02:48:10;;;;;;;;;;;;;;;;;;5073653;28;20228;-56
2022/04/27 02:53:22;;;;;;;;;;;;;;;;;;5073241;28;19916;-56
2022/04/27 02:55:48;;;;;;;;;;;;;;;;;;5072618;28;19977;-54
2022/04/27 02:58:15;;;;;;;;;;;;;;;;;;5073751;28;19914;-57
2022/04/27 03:00:44;;;;;;;;;;;;;;;;;;5067897;28;19909;-54
2022/04/27 03:03:11;;;;;;;;;;;;;;;;;;5053105;28;19908;-51
2022/04/27 03:05:38;;;;;;;;;;;;;;;;;;5051829;28;20313;-58
2022/04/27 03:08:04;;;;;;;;;;;;;;;;;;5053359;28;19909;-56
2022/04/27 03:10:31;;;;;;;;;;;;;;;;;;5053289;28;19932;-56
2022/04/27 03:12:59;;;;;;;;;;;;;;;;;;5053298;28;20362;-57
2022/04/27 03:15:25;;;;;;;;;;;;;;;;;;5052825;28;19916;-52
2022/04/27 03:20:36;;;;;;;;;;;;;;;;;;5053325;28;19988;-57
2022/04/27 03:23:03;;;;;;;;;;;;;;;;;;5068339;28;20339;-45
2022/04/27 03:25:29;;;;;;;;;;;;;;;;;;5073435;28;19999;-50
2022/04/27 03:27:56;;;;;;;;;;;;;;;;;;5073272;28;20003;-52
2022/04/27 03:30:22;;;;;;;;;;;;;;;;;;5072903;28;19908;-49
2022/04/27 03:32:48;;;;;;;;;;;;;;;;;;5071344;28;20243;-56
2022/04/27 03:35:15;;;;;;;;;;;;;;;;;;5071570;28;19908;-54
2022/04/27 03:37:41;;;;;;;;;;;;;;;;;;5072658;28;19913;-54
2022/04/27 03:40:09;;;;;;;;;;;;;;;;;;5073386;28;19909;-58
2022/04/27 03:42:36;;;;;;;;;;;;;;;;;;5072758;28;19909;-44
2022/04/27 03:45:02;;;;;;;;;;;;;;;;;;5072050;28;19967;-56
2022/04/27 03:47:29;;;;;;;;;;;;;;;;;;5072224;28;19945;-54
2022/04/27 03:49:59;;;;;;;;;;;;;;;;;;5072555;28;20285;-54
2022/04/27 03:52:26;;;;;;;;;;;;;;;;;;5072421;28;19915;-56
2022/04/27 03:54:52;;;;;;;;;;;;;;;;;;5066162;28;19909;-52
2022/04/27 03:57:19;;;;;;;;;;;;;;;;;;5051587;28;20026;-50
2022/04/27 03:59:45;;;;;;;;;;;;;;;;;;5051068;28;19944;-52
2022/04/27 04:02:11;;;;;;;;;;;;;;;;;;5052547;28;19909;-55
2022/04/27 04:04:38;;;;;;;;;;;;;;;;;;5068971;28;20389;-50
2022/04/27 04:07:04;;;;;;;;;;;;;;;;;;5072030;28;20328;-53
2022/04/27 04:09:31;;;;;;;;;;;;;;;;;;5072698;28;20278;-52
2022/04/27 04:11:57;;;;;;;;;;;;;;;;;;5071840;28;19931;-55
2022/04/27 04:14:24;;;;;;;;;;;;;;;;;;5072659;28;19913;-58
2022/04/27 04:16:50;;;;;;;;;;;;;;;;;;5072610;28;19954;-47
2022/04/27 04:19:17;;;;;;;;;;;;;;;;;;5072041;28;20271;-54
2022/04/27 04:21:43;;;;;;;;;;;;;;;;;;5072571;28;20016;-50
2022/04/27 04:24:10;;;;;;;;;;;;;;;;;;5072458;28;19915;-55
2022/04/27 04:29:21;;;;;;;;;;;;;;;;;;5072603;28;19931;-53
2022/04/27 04:31:48;;;;;;;;;;;;;;;;;;5072003;28;19916;-48
2022/04/27 04:34:14;;;;;;;;;;;;;;;;;;5072097;28;19908;-55
2022/04/27 04:36:40;;;;;;;;;;;;;;;;;;5072219;28;19909;-59
2022/04/27 04:39:07;;;;;;;;;;;;;;;;;;5071924;28;19908;-58
2022/04/27 04:41:33;;;;;;;;;;;;;;;;;;5072272;28;19936;-53
2022/04/27 04:44:00;;;;;;;;;;;;;;;;;;5072024;28;19908;-52
2022/04/27 04:46:26;;;;;;;;;;;;;;;;;;5071204;28;19921;-52
2022/04/27 04:48:53;;;;;;;;;;;;;;;;;;5073283;28;19909;-53
2022/04/27 04:51:19;;;;;;;;;;;;;;;;;;5074060;28;19959;-54
2022/04/27 04:53:46;;;;;;;;;;;;;;;;;;5075840;28;19970;-55
2022/04/27 04:56:12;;;;;;;;;;;;;;;;;;5075404;28;19909;-54
2022/04/27 04:58:39;;;;;;;;;;;;;;;;;;5076075;28;19909;-51
2022/04/27 05:01:05;;;;;;;;;;;;;;;;;;5075706;28;19961;-55
2022/04/27 05:03:36;;;;;;;;;;;;;;;;;;5075961;28;20007;-53
2022/04/27 05:06:02;;;;;;;;;;;;;;;;;;5075304;28;19952;-57
2022/04/27 05:08:29;;;;;;;;;;;;;;;;;;5075104;28;19916;-51
2022/04/27 05:10:55;;;;;;;;;;;;;;;;;;5075786;28;20411;-53
2022/04/27 05:13:21;;;;;;;;;;;;;;;;;;5075420;28;20391;-53
2022/04/27 05:15:48;;;;;;;;;;;;;;;;;;5075410;28;20012;-50
2022/04/27 05:18:14;;;;;;;;;;;;;;;;;;5075397;28;20375;-44
2022/04/27 05:20:41;;;;;;;;;;;;;;;;;;5074988;28;20256;-46
2022/04/27 05:23:07;;;;;;;;;;;;;;;;;;5074625;28;19948;-48
2022/04/27 05:25:34;;;;;;;;;;;;;;;;;;5075561;28;19917;-48
2022/04/27 05:28:04;;;;;;;;;;;;;;;;;;5075434;28;19909;-49
2022/04/27 05:33:15;;;;;;;;;;;;;;;;;;5074666;28;19954;-53
2022/04/27 05:35:41;;;;;;;;;;;;;;;;;;5074549;28;20375;-49
2022/04/27 05:38:08;;;;;;;;;;;;;;;;;;5074470;28;19909;-51
2022/04/27 05:40:35;;;;;;;;;;;;;;;;;;5073910;28;19908;-49
2022/04/27 05:43:05;;;;;;;;;;;;;;;;;;5074942;28;19966;-48
2022/04/27 05:45:32;;;;;;;;;;;;;;;;;;5074607;28;19960;-49
2022/04/27 05:47:58;;;;;;;;;;;;;;;;;;5075012;28;19925;-53
2022/04/27 05:50:25;;;;;;;;;;;;;;;;;;5074382;28;19914;-52
2022/04/27 05:52:56;;;;;;;;;;;;;;;;;;5073532;28;19935;-57
2022/04/27 05:55:22;;;;;;;;;;;;;;;;;;5073870;28;20231;-50
2022/04/27 05:57:48;;;;;;;;;;;;;;;;;;5074191;28;20235;-41
2022/04/27 06:00:15;;;;;;;;;;;;;;;;;;5074308;28;19916;-53
2022/04/27 06:02:41;;;;;;;;;;;;;;;;;;5074862;28;19912;-53
2022/04/27 06:05:08;;;;;;;;;;;;;;;;;;5073759;28;20024;-52
2022/04/27 06:07:35;;;;;;;;;;;;;;;;;;5074180;28;20015;-48
2022/04/27 06:10:02;;;;;;;;;;;;;;;;;;5074083;28;20386;-52
2022/04/27 06:12:34;;;;;;;;;;;;;;;;;;5073882;28;20333;-47
2022/04/27 06:15:01;;;;;;;;;;;;;;;;;;5074700;28;19908;-53
2022/04/27 06:17:27;;;;;;;;;;;;;;;;;;5073645;28;19908;-57
2022/04/27 06:19:54;;;;;;;;;;;;;;;;;;5073677;28;19919;-50
2022/04/27 06:22:20;;;;;;;;;;;;;;;;;;5073948;28;19909;-53
2022/04/27 06:24:47;;;;;;;;;;;;;;;;;;5073707;28;19920;-50
2022/04/27 06:27:13;;;;;;;;;;;;;;;;;;5073446;28;19959;-49
2022/04/27 06:29:40;;;;;;;;;;;;;;;;;;5072466;28;20299;-57
2022/04/27 06:32:06;;;;;;;;;;;;;;;;;;5074064;28;20334;-56
2022/04/27 06:34:33;;;;;;;;;;;;;;;;;;5073414;28;19908;-47
2022/04/27 06:36:59;;;;;;;;;;;;;;;;;;5072356;28;19908;-51
2022/04/27 06:39:26;;;;;;;;;;;;;;;;;;5072860;28;19908;-55
2022/04/27 06:41:52;;;;;;;;;;;;;;;;;;5073861;28;19908;-50
2022/04/27 06:44:19;;;;;;;;;;;;;;;;;;5073738;28;19908;-47
2022/04/27 06:46:45;;;;;;;;;;;;;;;;;;5073186;28;19928;-54
2022/04/27 06:49:11;;;;;;;;;;;;;;;;;;5072512;28;19908;-49
2022/04/27 06:51:38;;;;;;;;;;;;;;;;;;5072961;28;19915;-52
2022/04/27 06:54:04;;;;;;;;;;;;;;;;;;5073229;28;20247;-43
2022/04/27 06:56:31;;;;;;;;;;;;;;;;;;5072990;28;19909;-48
2022/04/27 06:58:57;;;;;;;;;;;;;;;;;;5073215;28;19908;-52
2022/04/27 07:01:24;;;;;;;;;;;;;;;;;;5072949;28;19913;-45
2022/04/27 07:03:55;;;;;;;;;;;;;;;;;;5073569;28;19908;-45
2022/04/27 07:06:21;;;;;;;;;;;;;;;;;;5072451;28;19978;-49
2022/04/27 07:08:48;;;;;;;;;;;;;;;;;;5072126;28;20000;-48
2022/04/27 07:11:14;;;;;;;;;;;;;;;;;;5071984;28;19909;-47
2022/04/27 07:13:41;;;;;;;;;;;;;;;;;;5072729;28;19916;-50
2022/04/27 07:16:08;;;;;;;;;;;;;;;;;;5065540;28;19915;-51
2022/04/27 07:18:34;;;;;;;;;;;;;;;;;;5051821;28;19919;-48
2022/04/27 07:21:01;;;;;;;;;;;;;;;;;;5052713;28;20339;-45
2022/04/27 07:23:27;;;;;;;;;;;;;;;;;;5052322;28;20283;-51
2022/04/27 07:25:54;;;;;;;;;;;;;;;;;;5070660;28;20386;-47
2022/04/27 07:28:20;;;;;;;;;;;;;;;;;;5072002;28;20382;-53
2022/04/27 07:30:47;;;;;;;;;;;;;;;;;;5072700;28;19908;-48
2022/04/27 07:33:13;;;;;;;;;;;;;;;;;;5072416;28;19921;-46
2022/04/27 07:35:39;;;;;;;;;;;;;;;;;;5055543;28;19967;-47
2022/04/27 07:38:06;;;;;;;;;;;;;;;;;;5051876;28;20018;-51
2022/04/27 07:40:32;;;;;;;;;;;;;;;;;;5052529;28;19999;-54
2022/04/27 07:42:59;;;;;;;;;;;;;;;;;;5052362;28;19917;-50
2022/04/27 07:45:25;;;;;;;;;;;;;;;;;;5052097;28;19916;-47
2022/04/27 07:47:52;;;;;;;;;;;;;;;;;;5060194;28;20355;-50
2022/04/27 07:50:19;;;;;;;;;;;;;;;;;;5072532;28;19954;-42
2022/04/27 07:52:46;;;;;;;;;;;;;;;;;;5072692;28;19974;-46
2022/04/27 07:55:12;;;;;;;;;;;;;;;;;;5071998;28;20249;-45
2022/04/27 07:57:39;;;;;;;;;;;;;;;;;;5071924;28;20228;-45
2022/04/27 08:00:05;;;;;;;;;;;;;;;;;;5071709;28;19909;-46
2022/04/27 08:02:32;;;;;;;;;;;;;;;;;;5071964;28;20049;-46
2022/04/27 08:04:58;;;;;;;;;;;;;;;;;;5072230;28;19986;-44
2022/04/27 08:07:25;;;;;;;;;;;;;;;;;;5072664;28;19923;-43
2022/04/27 08:09:51;;;;;;;;;;;;;;;;;;5072971;28;19909;-48
2022/04/27 08:12:18;;;;;;;;;;;;;;;;;;5071821;28;19908;-47
2022/04/27 08:14:44;;;;;;;;;;;;;;;;;;5071672;28;19912;-44
2022/04/27 08:17:11;;;;;;;;;;;;;;;;;;5071817;28;19908;-46
2022/04/27 08:19:37;;;;;;;;;;;;;;;;;;5071703;28;20389;-49
2022/04/27 08:22:06;;;;;;;;;;;;;;;;;;5073499;28;20421;-54
2022/04/27 08:24:33;;;;;;;;;;;;;;;;;;5076344;28;19912;-48
2022/04/27 08:26:59;;;;;;;;;;;;;;;;;;5075395;28;19916;-44
2022/04/27 08:29:26;;;;;;;;;;;;;;;;;;5075759;28;19909;-46
2022/04/27 08:31:53;;;;;;;;;;;;;;;;;;5075484;28;19908;-44
2022/04/27 08:34:19;;;;;;;;;;;;;;;;;;5075383;28;19958;-47
2022/04/27 08:36:46;;;;;;;;;;;;;;;;;;5076097;28;20391;-49
2022/04/27 08:39:13;;;;;;;;;;;;;;;;;;5076242;28;19948;-48
2022/04/27 08:41:40;;;;;;;;;;;;;;;;;;5076092;28;19912;-49
2022/04/27 08:44:07;;;;;;;;;;;;;;;;;;5076247;28;19947;-46
2022/04/27 08:46:33;;;;;;;;;;;;;;;;;;5076193;28;19917;-45
2022/04/27 08:49:00;;;;;;;;;;;;;;;;;;5075915;28;20355;-49
2022/04/27 08:51:26;;;;;;;;;;;;;;;;;;5075620;28;20312;-51
2022/04/27 08:53:53;;;;;;;;;;;;;;;;;;5075615;28;19915;-47
2022/04/27 08:56:19;;;;;;;;;;;;;;;;;;5075659;28;20367;-50
2022/04/27 08:58:46;;;;;;;;;;;;;;;;;;5075919;28;20021;-47
2022/04/27 09:01:12;;;;;;;;;;;;;;;;;;5075068;28;20240;-42
2022/04/27 09:03:38;;;;;;;;;;;;;;;;;;5075005;28;19909;-50
2022/04/27 09:06:05;;;;;;;;;;;;;;;;;;5074813;28;20386;-50
2022/04/27 09:08:31;;;;;;;;;;;;;;;;;;5075400;28;19909;-46
2022/04/27 09:10:58;;;;;;;;;;;;;;;;;;5075652;28;20256;-55
2022/04/27 09:13:24;;;;;;;;;;;;;;;;;;5075367;28;19931;-52
2022/04/27 09:15:51;;;;;;;;;;;;;;;;;;5075765;28;19912;-52
2022/04/27 09:21:02;;;;;;;;;;;;;;;;;;5075349;28;20329;-48
2022/04/27 09:23:29;;;;;;;;;;;;;;;;;;5074693;28;19908;-49
2022/04/27 09:25:55;;;;;;;;;;;;;;;;;;5074099;28;20327;-45
2022/04/27 09:28:22;;;;;;;;;;;;;;;;;;5075640;28;19908;-43
2022/04/27 09:30:49;;;;;;;;;;;;;;;;;;5075307;28;19930;-43
2022/04/27 09:33:15;;;;;;;;;;;;;;;;;;5073684;28;19916;-52
2022/04/27 09:35:42;;;;;;;;;;;;;;;;;;5074976;28;20006;-50
2022/04/27 09:38:08;;;;;;;;;;;;;;;;;;5074625;28;19931;-52
2022/04/27 09:40:35;;;;;;;;;;;;;;;;;;5075421;28;19996;-51
2022/04/27 09:43:01;;;;;;;;;;;;;;;;;;5074979;28;19916;-44
2022/04/27 09:45:28;;;;;;;;;;;;;;;;;;5075132;28;20271;-47
2022/04/27 09:47:57;;;;;;;;;;;;;;;;;;5074738;28;19952;-49
2022/04/27 09:50:24;;;;;;;;;;;;;;;;;;5073530;28;19912;-44
2022/04/27 09:52:50;;;;;;;;;;;;;;;;;;5075210;28;19908;-50
2022/04/27 09:55:17;;;;;;;;;;;;;;;;;;5074712;28;19908;-55
2022/04/27 09:57:43;;;;;;;;;;;;;;;;;;5073932;28;19912;-50
2022/04/27 10:00:12;;;;;;;;;;;;;;;;;;5074973;28;20359;-48
2022/04/27 10:02:39;;;;;;;;;;;;;;;;;;5074649;28;19909;-45
2022/04/27 10:05:05;;;;;;;;;;;;;;;;;;5074203;28;19988;-54
2022/04/27 10:07:32;;;;;;;;;;;;;;;;;;5074670;28;19916;-50
2022/04/27 10:09:58;;;;;;;;;;;;;;;;;;5074898;28;19908;-54
2022/04/27 10:12:25;;;;;;;;;;;;;;;;;;5074780;28;19909;-54
2022/04/27 10:14:51;;;;;;;;;;;;;;;;;;5074482;28;19915;-50
2022/04/27 10:17:18;;;;;;;;;;;;;;;;;;5074391;28;19969;-51
2022/04/27 10:19:44;;;;;;;;;;;;;;;;;;5074184;28;19912;-47
2022/04/27 10:22:11;;;;;;;;;;;;;;;;;;5074388;28;20007;-49
2022/04/27 10:24:37;;;;;;;;;;;;;;;;;;5074049;28;19905;-49
2022/04/27 10:27:04;;;;;;;;;;;;;;;;;;5073766;28;19924;-45
2022/04/27 10:29:30;;;;;;;;;;;;;;;;;;5074536;28;19920;-53
2022/04/27 10:31:57;;;;;;;;;;;;;;;;;;5073999;28;19909;-53
2022/04/27 10:34:23;;;;;;;;;;;;;;;;;;5073862;28;20027;-52
2022/04/27 10:36:50;;;;;;;;;;;;;;;;;;5074357;28;20360;-58
2022/04/27 10:39:16;;;;;;;;;;;;;;;;;;5074275;28;19905;-54
2022/04/27 10:41:43;;;;;;;;;;;;;;;;;;5073841;28;20003;-55
2022/04/27 10:44:09;;;;;;;;;;;;;;;;;;5074129;28;20339;-55
2022/04/27 10:46:36;;;;;;;;;;;;;;;;;;5073107;28;20312;-52
2022/04/27 10:49:03;;;;;;;;;;;;;;;;;;5073558;28;20351;-45
2022/04/27 10:51:29;;;;;;;;;;;;;;;;;;5073505;28;19908;-54
2022/04/27 10:53:56;;;;;;;;;;;;;;;;;;5073847;28;19915;-53
2022/04/27 10:56:25;;;;;;;;;;;;;;;;;;5073714;28;19908;-55
2022/04/27 10:58:52;;;;;;;;;;;;;;;;;;5074010;28;19988;-44
2022/04/27 11:01:19;;;;;;;;;;;;;;;;;;5073355;28;19908;-52
2022/04/27 11:03:46;;;;;;;;;;;;;;;;;;5073662;28;19912;-50
2022/04/27 11:06:13;;;;;;;;;;;;;;;;;;5073410;28;20401;-51
2022/04/27 11:08:40;;;;;;;;;;;;;;;;;;5072962;28;20378;-47
2022/04/27 11:11:06;;;;;;;;;;;;;;;;;;5073363;28;19909;-50
2022/04/27 11:13:33;;;;;;;;;;;;;;;;;;5073531;28;19912;-50
2022/04/27 11:15:59;;;;;;;;;;;;;;;;;;5073398;28;19920;-46
2022/04/27 11:18:26;;;;;;;;;;;;;;;;;;5073162;28;19915;-51
2022/04/27 11:20:52;;;;;;;;;;;;;;;;;;5073174;28;19909;-43
2022/04/27 11:23:19;;;;;;;;;;;;;;;;;;5073281;28;20003;-45
2022/04/27 11:25:45;;;;;;;;;;;;;;;;;;5073182;28;20385;-45
2022/04/27 11:28:12;;;;;;;;;;;;;;;;;;5072734;28;20004;-52
2022/04/27 11:30:39;;;;;;;;;;;;;;;;;;5071493;28;19916;-50
2022/04/27 11:33:05;;;;;;;;;;;;;;;;;;5072672;28;19909;-50
2022/04/27 11:35:31;;;;;;;;;;;;;;;;;;5073262;28;19909;-50
2022/04/27 11:37:58;;;;;;;;;;;;;;;;;;5073125;28;19909;-53
2022/04/27 11:40:25;;;;;;;;;;;;;;;;;;5072736;28;20351;-50
2022/04/27 11:42:51;;;;;;;;;;;;;;;;;;5072880;28;19999;-51
2022/04/27 11:45:18;;;;;;;;;;;;;;;;;;5072073;28;19954;-44
2022/04/27 11:47:44;;;;;;;;;;;;;;;;;;5072881;28;19944;-46
2022/04/27 11:50:11;;;;;;;;;;;;;;;;;;5072647;28;20355;-49
2022/04/27 11:52:37;;;;;;;;;;;;;;;;;;5072386;28;20442;-48
2022/04/27 11:55:04;;;;;;;;;;;;;;;;;;5072897;28;19919;-52
2022/04/27 11:57:30;;;;;;;;;;;;;;;;;;5062934;28;19909;-50
2022/04/27 11:59:57;;;;;;;;;;;;;;;;;;5052941;28;20344;-54
2022/04/27 12:02:24;;;;;;;;;;;;;;;;;;5059781;28;19919;-51
2022/04/27 12:04:53;;;;;;;;;;;;;;;;;;5072684;28;19924;-58
2022/04/27 12:07:23;;;;;;;;;;;;;;;;;;5071936;28;20425;-45
2022/04/27 12:09:50;;;;;;;;;;;;;;;;;;5072637;28;20012;-46
2022/04/27 12:12:16;;;;;;;;;;;;;;;;;;5072490;28;19954;-50
2022/04/27 12:14:43;;;;;;;;;;;;;;;;;;5073020;28;19962;-59
2022/04/27 12:17:09;;;;;;;;;;;;;;;;;;5072900;28;20264;-52
2022/04/27 12:19:36;;;;;;;;;;;;;;;;;;5072716;28;19916;-50
2022/04/27 12:22:03;;;;;;;;;;;;;;;;;;5071583;28;19908;-52
2022/04/27 12:24:29;;;;;;;;;;;;;;;;;;5072007;28;19908;-53
2022/04/27 12:26:56;;;;;;;;;;;;;;;;;;5072699;28;20275;-51
2022/04/27 12:29:22;;;;;;;;;;;;;;;;;;5072564;28;20347;-52
2022/04/27 12:31:49;;;;;;;;;;;;;;;;;;5072492;28;19905;-57
2022/04/27 12:39:44;;;;;;;;;;;;;;;;;;5072274;28;19916;-56
2022/04/27 12:42:13;;;;;;;;;;;;;;;;;;5072873;28;19908;-49
2022/04/27 12:44:40;;;;;;;;;;;;;;;;;;5072660;28;19935;-54
2022/04/27 12:47:07;;;;;;;;;;;;;;;;;;5072190;28;19962;-54
2022/04/27 12:49:34;;;;;;;;;;;;;;;;;;5072567;28;20413;-47
2022/04/27 12:52:02;;;;;;;;;;;;;;;;;;5072585;28;19908;-48
2022/04/27 12:54:28;;;;;;;;;;;;;;;;;;5072586;28;19908;-46
2022/04/27 12:56:54;;;;;;;;;;;;;;;;;;5072400;28;19934;-56
2022/04/27 12:59:21;;;;;;;;;;;;;;;;;;5072277;28;19915;-53
2022/04/27 13:01:47;;;;;;;;;;;;;;;;;;5072336;28;19908;-56
2022/04/27 13:04:15;;;;;;;;;;;;;;;;;;5072262;28;19912;-52
2022/04/27 13:06:41;;;;;;;;;;;;;;;;;;5072212;28;19964;-53
2022/04/27 13:11:56;;;;;;;;;;;;;;;;;;5075881;28;19915;-59
2022/04/27 13:14:23;;;;;;;;;;;;;;;;;;5074786;28;19916;-48
2022/04/27 13:16:49;;;;;;;;;;;;;;;;;;5076200;28;19931;-49
2022/04/27 13:19:16;;;;;;;;;;;;;;;;;;5075143;28;19912;-50
2022/04/27 13:21:42;;;;;;;;;;;;;;;;;;5076702;28;19915;-46
2022/04/27 13:24:09;;;;;;;;;;;;;;;;;;5075883;28;19915;-50
2022/04/27 13:26:35;;;;;;;;;;;;;;;;;;5075656;28;19917;-44
2022/04/27 13:29:02;;;;;;;;;;;;;;;;;;5075763;28;19908;-45
2022/04/27 13:31:28;;;;;;;;;;;;;;;;;;5075645;28;19955;-46
2022/04/27 13:33:55;;;;;;;;;;;;;;;;;;5075467;28;19909;-44
2022/04/27 13:36:21;;;;;;;;;;;;;;;;;;5075582;28;19989;-48
2022/04/27 13:38:48;;;;;;;;;;;;;;;;;;5075499;28;19916;-47
2022/04/27 13:41:14;;;;;;;;;;;;;;;;;;5075245;28;19919;-49
2022/04/27 13:43:40;;;;;;;;;;;;;;;;;;5075557;28;19912;-42
2022/04/27 13:46:08;;;;;;;;;;;;;;;;;;5075294;28;19921;-46
2022/04/27 13:48:34;;;;;;;;;;;;;;;;;;5075078;28;20004;-50
2022/04/27 13:51:01;;;;;;;;;;;;;;;;;;5075521;28;19908;-50
2022/04/27 13:53:27;;;;;;;;;;;;;;;;;;5074973;28;19908;-49
2022/04/27 13:55:54;;;;;;;;;;;;;;;;;;5075444;28;19919;-43
2022/04/27 13:58:20;;;;;;;;;;;;;;;;;;5075340;28;19908;-42
2022/04/27 14:00:48;;;;;;;;;;;;;;;;;;5075442;28;19975;-55
2022/04/27 14:03:15;;;;;;;;;;;;;;;;;;5074629;28;19908;-55
2022/04/27 14:05:41;;;;;;;;;;;;;;;;;;5075026;28;19924;-55
2022/04/27 14:08:08;;;;;;;;;;;;;;;;;;5075411;28;19912;-50
2022/04/27 14:10:34;;;;;;;;;;;;;;;;;;5074890;28;20330;-54
2022/04/27 14:13:17;;;;;;;;;;;;;;;;;;5075128;28;19909;-50
2022/04/27 14:18:29;;;;;;;;;;;;;;;;;;5053278;28;20319;-48
2022/04/27 14:20:56;;;;;;;;;;;;;;;;;;5074872;28;20282;-50
2022/04/27 14:23:23;;;;;;;;;;;;;;;;;;5074888;28;20850;-47
2022/04/27 14:25:49;;;;;;;;;;;;;;;;;;5074757;28;19920;-53
2022/04/27 14:28:16;;;;;;;;;;;;;;;;;;5066709;28;19909;-47
2022/04/27 14:30:42;;;;;;;;;;;;;;;;;;5054829;28;20306;-47
2022/04/27 14:33:09;;;;;;;;;;;;;;;;;;5054131;28;19934;-47
2022/04/27 14:35:36;;;;;;;;;;;;;;;;;;5054898;28;19996;-51
2022/04/27 14:38:02;;;;;;;;;;;;;;;;;;5058397;28;20421;-55
2022/04/27 14:40:29;;;;;;;;;;;;;;;;;;5074962;28;20363;-54
2022/04/27 14:42:56;;;;;;;;;;;;;;;;;;5074558;28;20331;-51
2022/04/27 14:45:22;;;;;;;;;;;;;;;;;;5074343;28;19999;-49
2022/04/27 14:47:49;;;;;;;;;;;;;;;;;;5073951;28;19942;-48
2022/04/27 14:50:16;;;;;;;;;;;;;;;;;;5074422;28;19916;-54
2022/04/27 14:52:43;;;;;;;;;;;;;;;;;;5074310;28;19912;-53
2022/04/27 14:55:09;;;;;;;;;;;;;;;;;;5073548;28;20433;-45
2022/04/27 14:57:36;;;;;;;;;;;;;;;;;;5074190;28;19951;-58
2022/04/27 15:00:03;;;;;;;;;;;;;;;;;;5074516;28;20363;-53
2022/04/27 15:02:31;;;;;;;;;;;;;;;;;;5073995;28;19915;-46
2022/04/27 15:04:59;;;;;;;;;;;;;;;;;;5073894;28;20000;-49
2022/04/27 15:07:25;;;;;;;;;;;;;;;;;;5073740;28;19970;-51
2022/04/27 15:09:51;;;;;;;;;;;;;;;;;;5073979;28;19915;-53
2022/04/27 15:12:18;;;;;;;;;;;;;;;;;;5074009;28;19908;-50
2022/04/27 15:14:44;;;;;;;;;;;;;;;;;;5074246;28;19913;-52
2022/04/27 15:17:11;;;;;;;;;;;;;;;;;;5073422;28;19912;-52
2022/04/27 15:19:38;;;;;;;;;;;;;;;;;;5073918;28;19908;-54
2022/04/27 15:24:49;;;;;;;;;;;;;;;;;;5073397;28;19916;-43
2022/04/27 15:27:16;;;;;;;;;;;;;;;;;;5073360;28;19942;-53
2022/04/27 15:29:42;;;;;;;;;;;;;;;;;;5073692;28;20363;-51
2022/04/27 15:32:09;;;;;;;;;;;;;;;;;;5072778;28;19932;-48
2022/04/27 15:34:35;;;;;;;;;;;;;;;;;;5073842;28;19916;-51
2022/04/27 15:37:05;;;;;;;;;;;;;;;;;;5073101;28;19908;-48
2022/04/27 15:39:31;;;;;;;;;;;;;;;;;;5073824;28;19984;-50
2022/04/27 15:42:04;;;;;;;;;;;;;;;;;;5073593;28;19999;-52
2022/04/27 15:44:31;;;;;;;;;;;;;;;;;;5073477;28;19908;-45
2022/04/27 15:46:57;;;;;;;;;;;;;;;;;;5073055;28;19920;-51
2022/04/27 15:49:25;;;;;;;;;;;;;;;;;;5073908;28;19912;-53
2022/04/27 15:51:52;;;;;;;;;;;;;;;;;;5073087;28;19915;-54
2022/04/27 15:54:18;;;;;;;;;;;;;;;;;;5073341;28;19908;-53
2022/04/27 15:56:45;;;;;;;;;;;;;;;;;;5073183;28;19909;-49
2022/04/27 15:59:12;;;;;;;;;;;;;;;;;;5073091;28;20390;-53
2022/04/27 16:01:39;;;;;;;;;;;;;;;;;;5073034;28;19947;-50
2022/04/27 16:04:05;;;;;;;;;;;;;;;;;;5073067;28;19908;-51
2022/04/27 16:06:32;;;;;;;;;;;;;;;;;;5072628;28;19928;-47
2022/04/27 16:08:58;;;;;;;;;;;;;;;;;;5073203;28;19955;-52
2022/04/27 16:11:24;;;;;;;;;;;;;;;;;;5072478;28;20409;-53
2022/04/27 16:13:51;;;;;;;;;;;;;;;;;;5073070;28;20363;-55
2022/04/27 16:16:17;;;;;;;;;;;;;;;;;;5072938;28;20279;-49
2022/04/27 16:18:47;;;;;;;;;;;;;;;;;;5072963;28;19912;-43
2022/04/27 16:23:58;;;;;;;;;;;;;;;;;;5072893;28;19915;-46
2022/04/27 16:26:24;;;;;;;;;;;;;;;;;;5072929;28;19925;-47
2022/04/27 16:28:51;;;;;;;;;;;;;;;;;;5072885;28;19909;-40
2022/04/27 16:31:17;;;;;;;;;;;;;;;;;;5072849;28;19951;-46
2022/04/27 16:33:44;;;;;;;;;;;;;;;;;;5072577;28;20003;-47
2022/04/27 16:36:10;;;;;;;;;;;;;;;;;;5072848;28;20385;-45
2022/04/27 16:38:37;;;;;;;;;;;;;;;;;;5072652;28;19947;-42
2022/04/27 16:41:04;;;;;;;;;;;;;;;;;;5072419;28;19916;-50
2022/04/27 16:43:31;;;;;;;;;;;;;;;;;;5075038;28;19909;-46
2022/04/27 16:45:57;;;;;;;;;;;;;;;;;;5076826;28;19912;-39
2022/04/27 16:48:24;;;;;;;;;;;;;;;;;;5076538;28;19916;-40
2022/04/27 16:50:50;;;;;;;;;;;;;;;;;;5076682;28;19913;-42
2022/04/27 16:53:17;;;;;;;;;;;;;;;;;;5076181;28;19960;-48
2022/04/27 16:55:43;;;;;;;;;;;;;;;;;;5076667;28;19908;-45
2022/04/27 16:58:10;;;;;;;;;;;;;;;;;;5076622;28;19962;-50
2022/04/27 17:00:52;;;;;;;;;;;;;;;;;;5076389;28;19909;-52
2022/04/27 17:03:18;;;;;;;;;;;;;;;;;;5076125;28;19909;-52
2022/04/27 17:05:45;;;;;;;;;;;;;;;;;;5073659;28;19920;-51
2022/04/27 17:08:11;;;;;;;;;;;;;;;;;;5056273;28;19920;-52
2022/04/27 17:10:38;;;;;;;;;;;;;;;;;;5056195;28;20355;-43
2022/04/27 17:13:04;;;;;;;;;;;;;;;;;;5055868;28;20003;-45
2022/04/27 17:15:31;;;;;;;;;;;;;;;;;;5056066;28;20000;-43